sensor_id;sensor_type;location;lat;lon;timestamp;temperature;humidity
7046;DHT22;3564;53.326;10.356;2022-08-06T00:01:40;17.70;92.60
7046;DHT22;3564;53.326;10.356;2022-08-06T00:04:05;17.70;92.70
7046;DHT22;3564;53.326;10.356;2022-08-06T00:06:32;17.70;92.70
7046;DHT22;3564;53.326;10.356;2022-08-06T00:08:58;17.70;92.80
7046;DHT22;3564;53.326;10.356;2022-08-06T00:11:23;17.70;92.80
7046;DHT22;3564;53.326;10.356;2022-08-06T00:13:49;17.70;92.80
7046;DHT22;3564;53.326;10.356;2022-08-06T00:16:14;17.70;92.80
7046;DHT22;3564;53.326;10.356;2022-08-06T00:18:40;17.60;92.80
7046;DHT22;3564;53.326;10.356;2022-08-06T00:21:06;17.60;92.90
7046;DHT22;3564;53.326;10.356;2022-08-06T00:23:31;17.60;93.00
7046;DHT22;3564;53.326;10.356;2022-08-06T00:25:57;17.70;93.10
7046;DHT22;3564;53.326;10.356;2022-08-06T00:28:24;17.70;93.10
7046;DHT22;3564;53.326;10.356;2022-08-06T00:30:50;17.60;93.00
7046;DHT22;3564;53.326;10.356;2022-08-06T00:33:16;17.60;93.10
7046;DHT22;3564;53.326;10.356;2022-08-06T00:35:42;17.60;93.20
7046;DHT22;3564;53.326;10.356;2022-08-06T00:38:08;17.60;93.20
7046;DHT22;3564;53.326;10.356;2022-08-06T00:40:34;17.60;93.30
7046;DHT22;3564;53.326;10.356;2022-08-06T00:43:02;17.60;93.20
7046;DHT22;3564;53.326;10.356;2022-08-06T00:45:33;17.60;93.20
7046;DHT22;3564;53.326;10.356;2022-08-06T00:47:59;17.50;93.20
7046;DHT22;3564;53.326;10.356;2022-08-06T00:50:26;17.50;93.30
7046;DHT22;3564;53.326;10.356;2022-08-06T00:52:52;17.50;93.30
7046;DHT22;3564;53.326;10.356;2022-08-06T00:55:18;17.50;93.40
7046;DHT22;3564;53.326;10.356;2022-08-06T00:57:46;17.40;93.40
7046;DHT22;3564;53.326;10.356;2022-08-06T01:00:12;17.40;93.50
7046;DHT22;3564;53.326;10.356;2022-08-06T01:02:38;17.40;93.70
7046;DHT22;3564;53.326;10.356;2022-08-06T01:05:04;17.40;93.70
7046;DHT22;3564;53.326;10.356;2022-08-06T01:07:29;17.30;93.70
7046;DHT22;3564;53.326;10.356;2022-08-06T01:09:55;17.30;93.80
7046;DHT22;3564;53.326;10.356;2022-08-06T01:12:21;17.30;93.80
7046;DHT22;3564;53.326;10.356;2022-08-06T01:14:46;17.30;93.80
7046;DHT22;3564;53.326;10.356;2022-08-06T01:17:19;17.30;93.80
7046;DHT22;3564;53.326;10.356;2022-08-06T01:19:58;17.30;93.90
7046;DHT22;3564;53.326;10.356;2022-08-06T01:28:05;17.30;94.00
7046;DHT22;3564;53.326;10.356;2022-08-06T01:30:35;17.30;94.00
7046;DHT22;3564;53.326;10.356;2022-08-06T01:33:11;17.20;94.00
7046;DHT22;3564;53.326;10.356;2022-08-06T01:35:42;17.20;94.00
7046;DHT22;3564;53.326;10.356;2022-08-06T01:38:11;17.30;94.10
7046;DHT22;3564;53.326;10.356;2022-08-06T01:40:40;17.20;94.00
7046;DHT22;3564;53.326;10.356;2022-08-06T01:43:11;17.30;94.10
7046;DHT22;3564;53.326;10.356;2022-08-06T01:45:40;17.20;93.90
7046;DHT22;3564;53.326;10.356;2022-08-06T01:48:16;17.20;94.00
7046;DHT22;3564;53.326;10.356;2022-08-06T01:50:46;17.20;93.90
7046;DHT22;3564;53.326;10.356;2022-08-06T01:53:15;17.20;94.00
7046;DHT22;3564;53.326;10.356;2022-08-06T01:55:45;17.10;93.90
7046;DHT22;3564;53.326;10.356;2022-08-06T01:58:12;17.10;94.10
7046;DHT22;3564;53.326;10.356;2022-08-06T02:00:44;17.10;94.10
7046;DHT22;3564;53.326;10.356;2022-08-06T02:03:16;17.10;94.10
7046;DHT22;3564;53.326;10.356;2022-08-06T02:05:44;17.00;94.20
7046;DHT22;3564;53.326;10.356;2022-08-06T02:08:13;17.00;94.20
7046;DHT22;3564;53.326;10.356;2022-08-06T02:10:42;17.00;94.20
7046;DHT22;3564;53.326;10.356;2022-08-06T02:13:10;17.00;94.20
7046;DHT22;3564;53.326;10.356;2022-08-06T02:15:38;17.00;94.30
7046;DHT22;3564;53.326;10.356;2022-08-06T02:18:05;17.00;94.30
7046;DHT22;3564;53.326;10.356;2022-08-06T02:20:38;16.90;94.30
7046;DHT22;3564;53.326;10.356;2022-08-06T02:23:09;17.00;94.40
7046;DHT22;3564;53.326;10.356;2022-08-06T02:25:38;16.90;94.40
7046;DHT22;3564;53.326;10.356;2022-08-06T02:28:06;16.90;94.50
7046;DHT22;3564;53.326;10.356;2022-08-06T02:30:38;16.90;94.40
7046;DHT22;3564;53.326;10.356;2022-08-06T02:33:05;16.90;94.40
7046;DHT22;3564;53.326;10.356;2022-08-06T02:35:36;16.90;94.40
7046;DHT22;3564;53.326;10.356;2022-08-06T02:38:06;16.90;94.50
7046;DHT22;3564;53.326;10.356;2022-08-06T02:40:53;16.90;94.60
7046;DHT22;3564;53.326;10.356;2022-08-06T02:43:32;16.90;94.60
7046;DHT22;3564;53.326;10.356;2022-08-06T02:46:08;16.80;94.60
7046;DHT22;3564;53.326;10.356;2022-08-06T02:48:46;16.80;94.70
7046;DHT22;3564;53.326;10.356;2022-08-06T02:51:16;16.70;94.60
7046;DHT22;3564;53.326;10.356;2022-08-06T02:53:48;16.70;94.60
7046;DHT22;3564;53.326;10.356;2022-08-06T02:56:19;16.70;94.70
7046;DHT22;3564;53.326;10.356;2022-08-06T02:58:48;16.70;94.70
7046;DHT22;3564;53.326;10.356;2022-08-06T03:01:38;16.60;94.80
7046;DHT22;3564;53.326;10.356;2022-08-06T03:04:06;16.70;94.90
7046;DHT22;3564;53.326;10.356;2022-08-06T03:06:33;16.60;94.80
7046;DHT22;3564;53.326;10.356;2022-08-06T03:09:02;16.60;94.90
7046;DHT22;3564;53.326;10.356;2022-08-06T03:11:31;16.60;95.00
7046;DHT22;3564;53.326;10.356;2022-08-06T03:14:01;16.60;95.10
7046;DHT22;3564;53.326;10.356;2022-08-06T03:16:29;16.60;95.00
7046;DHT22;3564;53.326;10.356;2022-08-06T03:18:56;16.60;95.00
7046;DHT22;3564;53.326;10.356;2022-08-06T03:21:23;16.60;95.00
7046;DHT22;3564;53.326;10.356;2022-08-06T03:23:50;16.60;95.10
7046;DHT22;3564;53.326;10.356;2022-08-06T03:26:16;16.50;95.00
7046;DHT22;3564;53.326;10.356;2022-08-06T03:28:44;16.50;95.00
7046;DHT22;3564;53.326;10.356;2022-08-06T03:31:11;16.50;95.10
7046;DHT22;3564;53.326;10.356;2022-08-06T03:33:37;16.50;95.20
7046;DHT22;3564;53.326;10.356;2022-08-06T03:36:03;16.40;95.10
7046;DHT22;3564;53.326;10.356;2022-08-06T03:38:37;16.40;95.10
7046;DHT22;3564;53.326;10.356;2022-08-06T03:41:03;16.40;95.10
7046;DHT22;3564;53.326;10.356;2022-08-06T03:43:30;16.40;95.20
7046;DHT22;3564;53.326;10.356;2022-08-06T03:46:01;16.40;95.20
7046;DHT22;3564;53.326;10.356;2022-08-06T03:48:31;16.40;95.20
7046;DHT22;3564;53.326;10.356;2022-08-06T03:51:00;16.40;95.30
7046;DHT22;3564;53.326;10.356;2022-08-06T03:53:27;16.40;95.30
7046;DHT22;3564;53.326;10.356;2022-08-06T03:55:56;16.40;95.20
7046;DHT22;3564;53.326;10.356;2022-08-06T03:58:23;16.40;95.20
7046;DHT22;3564;53.326;10.356;2022-08-06T04:01:01;16.40;95.30
7046;DHT22;3564;53.326;10.356;2022-08-06T04:03:28;16.40;95.30
7046;DHT22;3564;53.326;10.356;2022-08-06T04:05:55;16.40;95.20
7046;DHT22;3564;53.326;10.356;2022-08-06T04:08:22;16.40;95.30
7046;DHT22;3564;53.326;10.356;2022-08-06T04:10:49;16.40;95.30
7046;DHT22;3564;53.326;10.356;2022-08-06T04:13:18;16.40;95.30
7046;DHT22;3564;53.326;10.356;2022-08-06T04:15:45;16.40;95.30
7046;DHT22;3564;53.326;10.356;2022-08-06T04:18:19;16.40;95.30
7046;DHT22;3564;53.326;10.356;2022-08-06T04:20:48;16.40;95.30
7046;DHT22;3564;53.326;10.356;2022-08-06T04:23:14;16.40;95.30
7046;DHT22;3564;53.326;10.356;2022-08-06T04:25:45;16.40;95.30
7046;DHT22;3564;53.326;10.356;2022-08-06T04:28:13;16.50;95.30
7046;DHT22;3564;53.326;10.356;2022-08-06T04:30:39;16.50;95.30
7046;DHT22;3564;53.326;10.356;2022-08-06T04:33:10;16.50;95.30
7046;DHT22;3564;53.326;10.356;2022-08-06T04:35:39;16.40;95.30
7046;DHT22;3564;53.326;10.356;2022-08-06T04:38:05;16.50;95.40
7046;DHT22;3564;53.326;10.356;2022-08-06T04:40:31;16.50;95.40
7046;DHT22;3564;53.326;10.356;2022-08-06T04:42:57;16.50;95.50
7046;DHT22;3564;53.326;10.356;2022-08-06T04:45:24;16.50;95.50
7046;DHT22;3564;53.326;10.356;2022-08-06T04:47:50;16.50;95.60
7046;DHT22;3564;53.326;10.356;2022-08-06T04:50:16;16.50;95.60
7046;DHT22;3564;53.326;10.356;2022-08-06T04:52:42;16.50;95.60
7046;DHT22;3564;53.326;10.356;2022-08-06T04:55:08;16.60;95.60
7046;DHT22;3564;53.326;10.356;2022-08-06T04:57:33;16.60;95.60
7046;DHT22;3564;53.326;10.356;2022-08-06T04:59:59;16.60;95.60
7046;DHT22;3564;53.326;10.356;2022-08-06T05:02:24;16.60;95.70
7046;DHT22;3564;53.326;10.356;2022-08-06T05:04:51;16.60;95.70
7046;DHT22;3564;53.326;10.356;2022-08-06T05:07:29;16.60;95.80
7046;DHT22;3564;53.326;10.356;2022-08-06T05:09:58;16.60;95.90
7046;DHT22;3564;53.326;10.356;2022-08-06T05:12:38;16.60;95.90
7046;DHT22;3564;53.326;10.356;2022-08-06T05:15:18;16.70;96.00
7046;DHT22;3564;53.326;10.356;2022-08-06T05:18:07;16.70;96.00
7046;DHT22;3564;53.326;10.356;2022-08-06T05:20:37;16.70;96.10
7046;DHT22;3564;53.326;10.356;2022-08-06T05:23:11;16.70;96.20
7046;DHT22;3564;53.326;10.356;2022-08-06T05:25:37;16.80;96.20
7046;DHT22;3564;53.326;10.356;2022-08-06T05:28:05;16.80;96.30
7046;DHT22;3564;53.326;10.356;2022-08-06T05:30:30;16.80;96.30
7046;DHT22;3564;53.326;10.356;2022-08-06T05:32:56;16.80;96.30
7046;DHT22;3564;53.326;10.356;2022-08-06T05:35:23;16.90;96.30
7046;DHT22;3564;53.326;10.356;2022-08-06T05:37:49;16.90;96.30
7046;DHT22;3564;53.326;10.356;2022-08-06T05:40:15;17.00;96.40
7046;DHT22;3564;53.326;10.356;2022-08-06T05:42:40;17.00;96.40
7046;DHT22;3564;53.326;10.356;2022-08-06T05:45:10;17.10;96.50
7046;DHT22;3564;53.326;10.356;2022-08-06T05:47:37;17.10;96.50
7046;DHT22;3564;53.326;10.356;2022-08-06T05:50:11;17.20;96.50
7046;DHT22;3564;53.326;10.356;2022-08-06T05:52:56;17.20;96.40
7046;DHT22;3564;53.326;10.356;2022-08-06T05:57:56;17.40;96.40
7046;DHT22;3564;53.326;10.356;2022-08-06T06:00:24;17.40;96.30
7046;DHT22;3564;53.326;10.356;2022-08-06T06:02:53;17.40;96.30
7046;DHT22;3564;53.326;10.356;2022-08-06T06:05:20;17.50;96.60
7046;DHT22;3564;53.326;10.356;2022-08-06T06:07:47;17.50;96.40
7046;DHT22;3564;53.326;10.356;2022-08-06T06:10:14;17.60;96.30
7046;DHT22;3564;53.326;10.356;2022-08-06T06:12:41;17.60;96.30
7046;DHT22;3564;53.326;10.356;2022-08-06T06:15:09;17.60;96.20
7046;DHT22;3564;53.326;10.356;2022-08-06T06:18:05;17.70;96.30
7046;DHT22;3564;53.326;10.356;2022-08-06T06:23:11;17.90;96.20
7046;DHT22;3564;53.326;10.356;2022-08-06T06:25:47;17.90;96.10
7046;DHT22;3564;53.326;10.356;2022-08-06T06:28:22;17.90;96.10
7046;DHT22;3564;53.326;10.356;2022-08-06T06:30:56;18.00;96.00
7046;DHT22;3564;53.326;10.356;2022-08-06T06:36:01;18.10;96.20
7046;DHT22;3564;53.326;10.356;2022-08-06T06:38:50;18.10;96.20
7046;DHT22;3564;53.326;10.356;2022-08-06T06:41:43;18.20;96.10
7046;DHT22;3564;53.326;10.356;2022-08-06T06:44:19;18.20;95.70
7046;DHT22;3564;53.326;10.356;2022-08-06T06:47:16;18.30;95.60
7046;DHT22;3564;53.326;10.356;2022-08-06T06:49:58;18.30;95.40
7046;DHT22;3564;53.326;10.356;2022-08-06T06:52:28;18.40;95.60
7046;DHT22;3564;53.326;10.356;2022-08-06T06:57:56;18.50;95.90
7046;DHT22;3564;53.326;10.356;2022-08-06T07:00:23;18.50;95.60
7046;DHT22;3564;53.326;10.356;2022-08-06T07:02:51;18.60;95.40
7046;DHT22;3564;53.326;10.356;2022-08-06T07:05:19;18.70;95.20
7046;DHT22;3564;53.326;10.356;2022-08-06T07:07:46;18.80;95.20
7046;DHT22;3564;53.326;10.356;2022-08-06T07:10:13;18.80;95.10
7046;DHT22;3564;53.326;10.356;2022-08-06T07:12:42;18.90;94.80
7046;DHT22;3564;53.326;10.356;2022-08-06T07:15:09;18.90;94.70
7046;DHT22;3564;53.326;10.356;2022-08-06T07:17:37;19.00;94.60
7046;DHT22;3564;53.326;10.356;2022-08-06T07:20:06;19.00;94.60
7046;DHT22;3564;53.326;10.356;2022-08-06T07:22:35;19.00;94.70
7046;DHT22;3564;53.326;10.356;2022-08-06T07:25:04;19.10;94.60
7046;DHT22;3564;53.326;10.356;2022-08-06T07:27:34;19.10;94.30
7046;DHT22;3564;53.326;10.356;2022-08-06T07:30:02;19.20;94.20
7046;DHT22;3564;53.326;10.356;2022-08-06T07:32:29;19.30;93.90
7046;DHT22;3564;53.326;10.356;2022-08-06T07:34:55;19.30;93.80
7046;DHT22;3564;53.326;10.356;2022-08-06T07:37:21;19.40;94.10
7046;DHT22;3564;53.326;10.356;2022-08-06T07:39:49;19.40;93.80
7046;DHT22;3564;53.326;10.356;2022-08-06T07:42:18;19.50;93.60
7046;DHT22;3564;53.326;10.356;2022-08-06T07:44:48;19.50;93.70
7046;DHT22;3564;53.326;10.356;2022-08-06T07:47:19;19.60;93.70
7046;DHT22;3564;53.326;10.356;2022-08-06T07:49:54;19.60;93.40
7046;DHT22;3564;53.326;10.356;2022-08-06T07:52:20;19.60;93.20
7046;DHT22;3564;53.326;10.356;2022-08-06T07:54:46;19.70;93.30
7046;DHT22;3564;53.326;10.356;2022-08-06T07:57:14;19.80;93.40
7046;DHT22;3564;53.326;10.356;2022-08-06T07:59:40;19.90;93.50
7046;DHT22;3564;53.326;10.356;2022-08-06T08:02:07;20.10;93.40
7046;DHT22;3564;53.326;10.356;2022-08-06T08:04:34;20.10;92.90
7046;DHT22;3564;53.326;10.356;2022-08-06T08:07:19;20.20;92.40
7046;DHT22;3564;53.326;10.356;2022-08-06T08:09:45;20.20;92.00
7046;DHT22;3564;53.326;10.356;2022-08-06T08:12:14;20.30;91.70
7046;DHT22;3564;53.326;10.356;2022-08-06T08:14:43;20.30;91.40
7046;DHT22;3564;53.326;10.356;2022-08-06T08:17:09;20.30;91.20
7046;DHT22;3564;53.326;10.356;2022-08-06T08:19:34;20.30;91.10
7046;DHT22;3564;53.326;10.356;2022-08-06T08:22:09;20.40;90.90
7046;DHT22;3564;53.326;10.356;2022-08-06T08:24:36;20.40;90.80
7046;DHT22;3564;53.326;10.356;2022-08-06T08:27:02;20.60;90.80
7046;DHT22;3564;53.326;10.356;2022-08-06T08:29:29;20.60;90.50
7046;DHT22;3564;53.326;10.356;2022-08-06T08:31:55;20.70;90.30
7046;DHT22;3564;53.326;10.356;2022-08-06T08:34:21;20.80;90.40
7046;DHT22;3564;53.326;10.356;2022-08-06T08:36:48;20.80;90.30
7046;DHT22;3564;53.326;10.356;2022-08-06T08:39:13;20.80;90.30
7046;DHT22;3564;53.326;10.356;2022-08-06T08:41:46;20.80;89.70
7046;DHT22;3564;53.326;10.356;2022-08-06T08:44:11;20.80;89.70
7046;DHT22;3564;53.326;10.356;2022-08-06T08:46:42;20.90;89.80
7046;DHT22;3564;53.326;10.356;2022-08-06T08:49:18;21.00;89.40
7046;DHT22;3564;53.326;10.356;2022-08-06T08:51:46;21.10;89.40
7046;DHT22;3564;53.326;10.356;2022-08-06T08:54:16;21.20;88.80
7046;DHT22;3564;53.326;10.356;2022-08-06T08:56:44;21.20;87.70
7046;DHT22;3564;53.326;10.356;2022-08-06T08:59:10;21.20;87.40
7046;DHT22;3564;53.326;10.356;2022-08-06T09:01:36;21.30;87.90
7046;DHT22;3564;53.326;10.356;2022-08-06T09:04:03;21.30;88.10
7046;DHT22;3564;53.326;10.356;2022-08-06T09:06:30;21.40;88.50
7046;DHT22;3564;53.326;10.356;2022-08-06T09:09:00;21.40;87.80
7046;DHT22;3564;53.326;10.356;2022-08-06T09:11:30;21.30;87.30
7046;DHT22;3564;53.326;10.356;2022-08-06T09:13:56;21.30;86.60
7046;DHT22;3564;53.326;10.356;2022-08-06T09:16:21;21.30;86.40
7046;DHT22;3564;53.326;10.356;2022-08-06T09:18:47;21.30;86.20
7046;DHT22;3564;53.326;10.356;2022-08-06T09:21:13;21.30;86.10
7046;DHT22;3564;53.326;10.356;2022-08-06T09:23:38;21.30;84.80
7046;DHT22;3564;53.326;10.356;2022-08-06T09:26:07;21.40;84.50
7046;DHT22;3564;53.326;10.356;2022-08-06T09:28:41;21.50;83.90
7046;DHT22;3564;53.326;10.356;2022-08-06T09:31:16;21.70;83.90
7046;DHT22;3564;53.326;10.356;2022-08-06T09:34:03;21.80;83.40
7046;DHT22;3564;53.326;10.356;2022-08-06T09:36:43;21.90;83.00
7046;DHT22;3564;53.326;10.356;2022-08-06T09:39:09;22.10;83.50
7046;DHT22;3564;53.326;10.356;2022-08-06T09:41:45;22.20;84.00
7046;DHT22;3564;53.326;10.356;2022-08-06T09:44:12;22.30;83.20
7046;DHT22;3564;53.326;10.356;2022-08-06T09:46:46;22.20;82.40
7046;DHT22;3564;53.326;10.356;2022-08-06T09:49:13;22.10;81.90
7046;DHT22;3564;53.326;10.356;2022-08-06T09:51:40;22.10;83.20
7046;DHT22;3564;53.326;10.356;2022-08-06T09:54:08;22.10;83.20
7046;DHT22;3564;53.326;10.356;2022-08-06T09:56:35;22.20;83.60
7046;DHT22;3564;53.326;10.356;2022-08-06T09:59:07;22.30;83.40
7046;DHT22;3564;53.326;10.356;2022-08-06T10:01:40;22.40;82.70
7046;DHT22;3564;53.326;10.356;2022-08-06T10:04:07;22.40;82.60
7046;DHT22;3564;53.326;10.356;2022-08-06T10:06:53;22.50;81.20
7046;DHT22;3564;53.326;10.356;2022-08-06T10:09:20;22.60;80.80
7046;DHT22;3564;53.326;10.356;2022-08-06T10:11:45;22.70;79.20
7046;DHT22;3564;53.326;10.356;2022-08-06T10:14:29;22.70;79.20
7046;DHT22;3564;53.326;10.356;2022-08-06T10:17:10;22.80;78.10
7046;DHT22;3564;53.326;10.356;2022-08-06T10:19:37;22.90;76.70
7046;DHT22;3564;53.326;10.356;2022-08-06T10:22:15;22.90;76.30
7046;DHT22;3564;53.326;10.356;2022-08-06T10:24:46;23.00;76.40
7046;DHT22;3564;53.326;10.356;2022-08-06T10:27:36;23.10;75.30
7046;DHT22;3564;53.326;10.356;2022-08-06T10:30:08;23.20;75.70
7046;DHT22;3564;53.326;10.356;2022-08-06T10:32:48;23.20;75.60
7046;DHT22;3564;53.326;10.356;2022-08-06T10:35:17;23.30;76.30
7046;DHT22;3564;53.326;10.356;2022-08-06T10:37:45;23.40;77.10
7046;DHT22;3564;53.326;10.356;2022-08-06T10:40:14;23.50;76.30
7046;DHT22;3564;53.326;10.356;2022-08-06T10:42:40;23.60;77.20
7046;DHT22;3564;53.326;10.356;2022-08-06T10:45:09;23.70;75.60
7046;DHT22;3564;53.326;10.356;2022-08-06T10:47:35;23.70;75.80
7046;DHT22;3564;53.326;10.356;2022-08-06T10:50:02;23.90;75.50
7046;DHT22;3564;53.326;10.356;2022-08-06T10:52:28;23.90;75.50
7046;DHT22;3564;53.326;10.356;2022-08-06T10:54:55;23.80;75.70
7046;DHT22;3564;53.326;10.356;2022-08-06T10:57:22;23.90;77.30
7046;DHT22;3564;53.326;10.356;2022-08-06T10:59:48;23.90;76.80
7046;DHT22;3564;53.326;10.356;2022-08-06T11:02:34;23.90;77.50
7046;DHT22;3564;53.326;10.356;2022-08-06T11:05:09;23.80;76.40
7046;DHT22;3564;53.326;10.356;2022-08-06T11:14:05;23.70;77.20
7046;DHT22;3564;53.326;10.356;2022-08-06T11:16:28;23.70;76.40
7046;DHT22;3564;53.326;10.356;2022-08-06T11:19:12;23.70;76.60
7046;DHT22;3564;53.326;10.356;2022-08-06T11:21:40;23.90;77.00
7046;DHT22;3564;53.326;10.356;2022-08-06T11:24:06;24.00;76.10
7046;DHT22;3564;53.326;10.356;2022-08-06T11:26:37;24.10;76.30
7046;DHT22;3564;53.326;10.356;2022-08-06T11:29:04;24.10;77.00
7046;DHT22;3564;53.326;10.356;2022-08-06T11:34:10;24.10;76.50
7046;DHT22;3564;53.326;10.356;2022-08-06T11:39:16;24.20;75.70
7046;DHT22;3564;53.326;10.356;2022-08-06T11:44:12;24.10;74.50
7046;DHT22;3564;53.326;10.356;2022-08-06T11:46:41;24.00;74.50
7046;DHT22;3564;53.326;10.356;2022-08-06T11:51:57;23.80;75.50
7046;DHT22;3564;53.326;10.356;2022-08-06T11:54:31;23.70;75.60
7046;DHT22;3564;53.326;10.356;2022-08-06T12:02:10;23.60;76.20
7046;DHT22;3564;53.326;10.356;2022-08-06T12:07:22;23.60;76.40
7046;DHT22;3564;53.326;10.356;2022-08-06T12:12:32;23.50;77.00
7046;DHT22;3564;53.326;10.356;2022-08-06T12:15:00;23.50;77.60
7046;DHT22;3564;53.326;10.356;2022-08-06T12:17:27;23.50;77.30
7046;DHT22;3564;53.326;10.356;2022-08-06T12:19:56;23.40;75.70
7046;DHT22;3564;53.326;10.356;2022-08-06T12:22:34;23.30;76.20
7046;DHT22;3564;53.326;10.356;2022-08-06T12:25:07;23.40;76.60
7046;DHT22;3564;53.326;10.356;2022-08-06T12:27:34;23.40;76.60
7046;DHT22;3564;53.326;10.356;2022-08-06T12:30:03;23.20;74.70
7046;DHT22;3564;53.326;10.356;2022-08-06T12:32:34;23.20;75.40
7046;DHT22;3564;53.326;10.356;2022-08-06T12:35:06;23.10;75.50
7046;DHT22;3564;53.326;10.356;2022-08-06T12:37:41;23.10;75.60
7046;DHT22;3564;53.326;10.356;2022-08-06T12:40:12;23.10;75.40
7046;DHT22;3564;53.326;10.356;2022-08-06T12:45:24;23.20;75.20
7046;DHT22;3564;53.326;10.356;2022-08-06T12:48:16;23.30;75.60
7046;DHT22;3564;53.326;10.356;2022-08-06T12:50:43;23.40;74.60
7046;DHT22;3564;53.326;10.356;2022-08-06T12:53:18;23.40;76.10
7046;DHT22;3564;53.326;10.356;2022-08-06T12:55:49;23.60;76.10
7046;DHT22;3564;53.326;10.356;2022-08-06T12:58:18;23.70;74.80
7046;DHT22;3564;53.326;10.356;2022-08-06T13:00:48;23.70;72.90
7046;DHT22;3564;53.326;10.356;2022-08-06T13:03:14;23.80;72.50
7046;DHT22;3564;53.326;10.356;2022-08-06T13:05:42;23.90;71.10
7046;DHT22;3564;53.326;10.356;2022-08-06T13:08:09;23.90;71.60
7046;DHT22;3564;53.326;10.356;2022-08-06T13:10:34;24.00;70.90
7046;DHT22;3564;53.326;10.356;2022-08-06T13:13:03;24.10;71.30
7046;DHT22;3564;53.326;10.356;2022-08-06T13:15:30;24.10;70.80
7046;DHT22;3564;53.326;10.356;2022-08-06T13:18:16;24.20;71.90
7046;DHT22;3564;53.326;10.356;2022-08-06T13:20:47;24.20;72.60
7046;DHT22;3564;53.326;10.356;2022-08-06T13:23:36;24.10;73.00
7046;DHT22;3564;53.326;10.356;2022-08-06T13:26:17;24.10;72.20
7046;DHT22;3564;53.326;10.356;2022-08-06T13:29:07;24.10;72.80
7046;DHT22;3564;53.326;10.356;2022-08-06T13:31:37;24.20;72.90
7046;DHT22;3564;53.326;10.356;2022-08-06T13:34:05;24.20;69.80
7046;DHT22;3564;53.326;10.356;2022-08-06T13:36:32;24.30;70.90
7046;DHT22;3564;53.326;10.356;2022-08-06T13:38:58;24.30;71.00
7046;DHT22;3564;53.326;10.356;2022-08-06T13:41:29;24.30;70.80
7046;DHT22;3564;53.326;10.356;2022-08-06T13:43:58;24.40;71.30
7046;DHT22;3564;53.326;10.356;2022-08-06T13:46:26;24.40;71.30
7046;DHT22;3564;53.326;10.356;2022-08-06T13:48:53;24.40;69.90
7046;DHT22;3564;53.326;10.356;2022-08-06T13:51:23;24.60;71.00
7046;DHT22;3564;53.326;10.356;2022-08-06T13:53:49;24.60;70.00
7046;DHT22;3564;53.326;10.356;2022-08-06T13:56:15;24.70;71.00
7046;DHT22;3564;53.326;10.356;2022-08-06T13:58:42;24.80;69.70
7046;DHT22;3564;53.326;10.356;2022-08-06T14:01:12;24.90;69.40
7046;DHT22;3564;53.326;10.356;2022-08-06T14:03:38;25.00;68.70
7046;DHT22;3564;53.326;10.356;2022-08-06T14:06:04;25.00;68.40
7046;DHT22;3564;53.326;10.356;2022-08-06T14:08:29;25.00;69.20
7046;DHT22;3564;53.326;10.356;2022-08-06T14:10:55;25.10;69.50
7046;DHT22;3564;53.326;10.356;2022-08-06T14:13:21;25.20;68.20
7046;DHT22;3564;53.326;10.356;2022-08-06T14:15:49;25.20;67.50
7046;DHT22;3564;53.326;10.356;2022-08-06T14:18:17;25.20;67.30
7046;DHT22;3564;53.326;10.356;2022-08-06T14:20:43;25.30;67.10
7046;DHT22;3564;53.326;10.356;2022-08-06T14:23:10;25.40;67.30
7046;DHT22;3564;53.326;10.356;2022-08-06T14:25:35;25.50;66.10
7046;DHT22;3564;53.326;10.356;2022-08-06T14:28:02;25.50;66.30
7046;DHT22;3564;53.326;10.356;2022-08-06T14:30:28;25.40;64.50
7046;DHT22;3564;53.326;10.356;2022-08-06T14:32:54;25.50;65.00
7046;DHT22;3564;53.326;10.356;2022-08-06T14:35:20;25.60;65.20
7046;DHT22;3564;53.326;10.356;2022-08-06T14:37:46;25.80;65.30
7046;DHT22;3564;53.326;10.356;2022-08-06T14:40:13;25.90;65.60
7046;DHT22;3564;53.326;10.356;2022-08-06T14:42:39;25.90;64.90
7046;DHT22;3564;53.326;10.356;2022-08-06T14:45:40;26.00;65.10
7046;DHT22;3564;53.326;10.356;2022-08-06T14:48:06;26.10;65.70
7046;DHT22;3564;53.326;10.356;2022-08-06T14:50:31;26.30;64.10
7046;DHT22;3564;53.326;10.356;2022-08-06T14:52:58;26.40;62.50
7046;DHT22;3564;53.326;10.356;2022-08-06T14:55:24;26.60;62.80
7046;DHT22;3564;53.326;10.356;2022-08-06T14:57:49;26.80;62.50
7046;DHT22;3564;53.326;10.356;2022-08-06T15:00:15;26.90;62.40
7046;DHT22;3564;53.326;10.356;2022-08-06T15:02:41;27.00;60.90
7046;DHT22;3564;53.326;10.356;2022-08-06T15:05:07;27.00;62.20
7046;DHT22;3564;53.326;10.356;2022-08-06T15:07:32;27.20;63.00
7046;DHT22;3564;53.326;10.356;2022-08-06T15:09:58;27.40;62.00
7046;DHT22;3564;53.326;10.356;2022-08-06T15:12:23;27.60;61.20
7046;DHT22;3564;53.326;10.356;2022-08-06T15:14:49;27.80;60.60
7046;DHT22;3564;53.326;10.356;2022-08-06T15:17:15;28.00;60.90
7046;DHT22;3564;53.326;10.356;2022-08-06T15:19:41;28.10;59.80
7046;DHT22;3564;53.326;10.356;2022-08-06T15:22:07;28.30;58.90
7046;DHT22;3564;53.326;10.356;2022-08-06T15:24:33;28.30;56.20
7046;DHT22;3564;53.326;10.356;2022-08-06T15:26:59;28.30;56.20
7046;DHT22;3564;53.326;10.356;2022-08-06T15:29:27;28.50;56.40
7046;DHT22;3564;53.326;10.356;2022-08-06T15:31:53;28.50;55.30
7046;DHT22;3564;53.326;10.356;2022-08-06T15:34:18;28.70;54.20
7046;DHT22;3564;53.326;10.356;2022-08-06T15:36:44;28.70;54.30
7046;DHT22;3564;53.326;10.356;2022-08-06T15:39:10;28.80;54.10
7046;DHT22;3564;53.326;10.356;2022-08-06T15:41:35;28.90;54.30
7046;DHT22;3564;53.326;10.356;2022-08-06T15:44:01;28.90;53.50
7046;DHT22;3564;53.326;10.356;2022-08-06T15:46:26;28.90;54.30
7046;DHT22;3564;53.326;10.356;2022-08-06T15:48:52;29.00;53.50
7046;DHT22;3564;53.326;10.356;2022-08-06T15:51:23;29.10;52.40
7046;DHT22;3564;53.326;10.356;2022-08-06T15:53:51;29.10;53.50
7046;DHT22;3564;53.326;10.356;2022-08-06T15:56:16;29.20;52.60
7046;DHT22;3564;53.326;10.356;2022-08-06T15:58:43;29.40;53.30
7046;DHT22;3564;53.326;10.356;2022-08-06T16:01:08;29.80;51.50
7046;DHT22;3564;53.326;10.356;2022-08-06T16:03:34;30.30;51.90
7046;DHT22;3564;53.326;10.356;2022-08-06T16:06:00;31.20;51.90
7046;DHT22;3564;53.326;10.356;2022-08-06T16:08:25;32.70;51.30
7046;DHT22;3564;53.326;10.356;2022-08-06T16:10:51;34.00;50.20
7046;DHT22;3564;53.326;10.356;2022-08-06T16:13:17;35.40;49.00
7046;DHT22;3564;53.326;10.356;2022-08-06T16:15:49;36.40;46.90
7046;DHT22;3564;53.326;10.356;2022-08-06T16:18:16;37.50;46.20
7046;DHT22;3564;53.326;10.356;2022-08-06T16:20:43;38.40;44.60
7046;DHT22;3564;53.326;10.356;2022-08-06T16:23:10;39.10;43.40
7046;DHT22;3564;53.326;10.356;2022-08-06T16:25:36;39.50;42.60
7046;DHT22;3564;53.326;10.356;2022-08-06T16:28:03;40.50;40.80
7046;DHT22;3564;53.326;10.356;2022-08-06T16:30:29;40.40;40.20
7046;DHT22;3564;53.326;10.356;2022-08-06T16:32:55;40.70;39.90
7046;DHT22;3564;53.326;10.356;2022-08-06T16:35:20;41.10;38.60
7046;DHT22;3564;53.326;10.356;2022-08-06T16:37:46;41.30;38.60
7046;DHT22;3564;53.326;10.356;2022-08-06T16:40:12;41.50;38.80
7046;DHT22;3564;53.326;10.356;2022-08-06T16:42:38;41.80;38.70
7046;DHT22;3564;53.326;10.356;2022-08-06T16:45:04;41.80;37.70